createdAt,value
2018-07-25T00:01:35.579Z,26.30
2018-07-25T00:04:03.746Z,26.30
2018-07-25T00:06:31.872Z,26.30
2018-07-25T00:09:00.006Z,26.30
2018-07-25T00:11:28.150Z,26.20
2018-07-25T00:13:56.293Z,26.20
2018-07-25T00:16:24.436Z,26.10
2018-07-25T00:18:52.574Z,26.10
2018-07-25T00:21:20.723Z,26.10
2018-07-25T00:23:48.858Z,26.00
2018-07-25T00:26:16.995Z,25.90
2018-07-25T00:28:45.142Z,25.90
2018-07-25T00:31:13.282Z,25.90
2018-07-25T00:33:41.428Z,25.80
2018-07-25T00:36:09.567Z,25.80
2018-07-25T00:38:37.690Z,25.80
2018-07-25T00:41:05.805Z,25.70
2018-07-25T00:43:33.966Z,25.70
2018-07-25T00:46:02.103Z,25.60
2018-07-25T00:48:30.234Z,25.60
2018-07-25T00:53:26.266Z,25.60
2018-07-25T00:55:54.398Z,25.50
2018-07-25T00:58:22.546Z,25.50
2018-07-25T01:00:50.670Z,25.40
2018-07-25T01:03:18.817Z,25.40
2018-07-25T01:05:46.950Z,25.40
2018-07-25T01:08:15.111Z,25.40
2018-07-25T01:10:43.238Z,25.30
2018-07-25T01:13:12.358Z,25.30
2018-07-25T01:15:40.840Z,25.30
2018-07-25T01:18:09.217Z,25.30
2018-07-25T01:20:37.363Z,25.20
2018-07-25T01:23:05.507Z,25.20
2018-07-25T01:25:33.683Z,25.20
2018-07-25T01:28:01.842Z,25.20
2018-07-25T01:30:29.974Z,25.20
2018-07-25T01:32:58.109Z,25.20
2018-07-25T01:35:26.227Z,25.20
2018-07-25T01:37:54.361Z,25.10
2018-07-25T01:40:22.481Z,25.10
2018-07-25T01:42:50.635Z,25.10
2018-07-25T01:45:18.783Z,25.10
2018-07-25T01:47:46.914Z,25.10
2018-07-25T01:50:15.065Z,25.10
2018-07-25T01:52:43.209Z,25.00
2018-07-25T01:55:11.341Z,25.00
2018-07-25T01:57:39.484Z,25.00
2018-07-25T02:00:07.626Z,25.00
2018-07-25T02:02:35.741Z,25.00
2018-07-25T02:05:03.908Z,25.00
2018-07-25T02:07:32.026Z,24.90
2018-07-25T02:10:00.161Z,24.90
2018-07-25T02:12:28.306Z,24.90
2018-07-25T02:14:56.450Z,24.90
2018-07-25T02:17:24.567Z,24.90
2018-07-25T02:19:52.708Z,24.90
2018-07-25T02:22:20.838Z,24.80
2018-07-25T02:24:48.969Z,24.80
2018-07-25T02:27:17.100Z,24.80
2018-07-25T02:29:45.230Z,24.80
2018-07-25T02:32:13.352Z,24.70
2018-07-25T02:34:41.474Z,24.70
2018-07-25T02:37:09.602Z,24.70
2018-07-25T02:39:37.845Z,24.70
2018-07-25T02:42:06.001Z,24.60
2018-07-25T02:44:34.127Z,24.60
2018-07-25T02:47:02.242Z,24.60
2018-07-25T02:49:30.382Z,24.50
2018-07-25T02:51:58.503Z,24.50
2018-07-25T02:56:54.522Z,24.50
2018-07-25T02:59:22.648Z,24.50
2018-07-25T03:01:50.802Z,24.40
2018-07-25T03:04:18.949Z,24.40
2018-07-25T03:06:47.087Z,24.40
2018-07-25T03:09:15.213Z,24.40
2018-07-25T03:11:43.350Z,24.40
2018-07-25T03:14:11.493Z,24.30
2018-07-25T03:16:39.627Z,24.30
2018-07-25T03:19:07.771Z,24.30
2018-07-25T03:21:35.893Z,24.30
2018-07-25T03:24:04.306Z,24.20
2018-07-25T03:26:32.447Z,24.20
2018-07-25T03:29:00.576Z,24.20
2018-07-25T03:31:28.793Z,24.10
2018-07-25T03:33:56.835Z,24.20
2018-07-25T03:36:24.970Z,24.10
2018-07-25T03:38:53.094Z,24.10
2018-07-25T03:41:21.246Z,24.10
2018-07-25T03:43:49.370Z,24.10
2018-07-25T03:46:17.502Z,24.10
2018-07-25T03:48:45.647Z,24.00
2018-07-25T03:51:13.807Z,24.00
2018-07-25T03:53:41.930Z,23.90
2018-07-25T03:56:10.061Z,23.90
2018-07-25T03:58:38.223Z,23.90
2018-07-25T04:01:06.839Z,23.80
2018-07-25T04:03:34.998Z,23.80
2018-07-25T04:06:03.146Z,23.70
2018-07-25T04:08:31.279Z,23.70
2018-07-25T04:13:27.309Z,23.60
2018-07-25T04:15:55.470Z,23.60
2018-07-25T04:18:23.602Z,23.50
2018-07-25T04:20:51.745Z,23.50
2018-07-25T04:23:19.888Z,23.50
2018-07-25T04:25:48.026Z,23.50
2018-07-25T04:28:16.154Z,23.40
2018-07-25T04:30:44.294Z,23.40
2018-07-25T04:33:12.434Z,23.40
2018-07-25T04:35:40.570Z,23.40
2018-07-25T04:40:36.594Z,23.40
2018-07-25T04:43:04.737Z,23.40
2018-07-25T04:45:32.861Z,23.40
2018-07-25T04:48:01.010Z,23.30
2018-07-25T04:50:29.152Z,23.30
2018-07-25T04:52:57.326Z,23.30
2018-07-25T04:55:25.454Z,23.30
2018-07-25T04:57:53.602Z,23.30
2018-07-25T05:00:21.731Z,23.30
2018-07-25T05:02:51.097Z,23.30
2018-07-25T05:05:19.230Z,23.30
2018-07-25T05:07:47.369Z,23.30
2018-07-25T05:10:15.493Z,23.30
2018-07-25T05:12:43.643Z,23.30
2018-07-25T05:15:11.771Z,23.30
2018-07-25T05:17:39.919Z,23.30
2018-07-25T05:20:08.063Z,23.30
2018-07-25T05:22:36.192Z,23.30
2018-07-25T05:25:04.417Z,23.30
2018-07-25T05:27:32.555Z,23.30
2018-07-25T05:30:00.713Z,23.40
2018-07-25T05:32:28.842Z,23.40
2018-07-25T05:34:56.989Z,23.40
2018-07-25T05:37:25.206Z,23.50
2018-07-25T05:39:53.350Z,23.50
2018-07-25T05:42:21.492Z,23.50
2018-07-25T05:44:49.616Z,23.50
2018-07-25T05:47:17.758Z,23.60
2018-07-25T05:49:45.890Z,23.60
2018-07-25T05:52:14.030Z,23.60
2018-07-25T05:54:42.182Z,23.60
2018-07-25T05:57:10.335Z,23.70
2018-07-25T05:59:38.465Z,23.70
2018-07-25T06:02:06.741Z,23.80
2018-07-25T06:04:34.959Z,23.80
2018-07-25T06:07:03.082Z,23.80
2018-07-25T06:09:31.235Z,23.80
2018-07-25T06:11:59.379Z,23.90
2018-07-25T06:14:27.523Z,23.90
2018-07-25T06:16:55.657Z,23.90
2018-07-25T06:19:23.906Z,23.90
2018-07-25T06:21:52.115Z,24.00
2018-07-25T06:24:20.242Z,24.00
2018-07-25T06:26:48.381Z,24.10
2018-07-25T06:29:16.531Z,24.10
2018-07-25T06:31:44.677Z,24.10
2018-07-25T06:34:12.811Z,24.20
2018-07-25T06:36:40.971Z,24.20
2018-07-25T06:39:10.566Z,24.20
2018-07-25T06:41:38.848Z,24.30
2018-07-25T06:44:07.511Z,24.30
2018-07-25T06:46:35.642Z,24.30
2018-07-25T06:49:04.178Z,24.40
2018-07-25T06:51:32.322Z,24.40
2018-07-25T06:54:00.454Z,24.50
2018-07-25T06:56:28.662Z,24.50
2018-07-25T06:58:56.808Z,24.50
2018-07-25T07:01:25.285Z,24.60
2018-07-25T07:03:53.424Z,24.70
2018-07-25T07:06:21.571Z,24.70
2018-07-25T07:08:49.708Z,24.70
2018-07-25T07:11:17.853Z,24.80
2018-07-25T07:13:45.990Z,24.80
2018-07-25T07:16:14.122Z,24.90
2018-07-25T07:18:42.566Z,25.00
2018-07-25T07:21:10.849Z,25.00
2018-07-25T07:23:38.990Z,25.10
2018-07-25T07:26:07.162Z,25.10
2018-07-25T07:28:35.305Z,25.20
2018-07-25T07:31:03.454Z,25.20
2018-07-25T07:33:32.022Z,25.30
2018-07-25T07:36:00.166Z,25.40
2018-07-25T07:38:28.391Z,25.40
2018-07-25T07:40:56.742Z,25.50
2018-07-25T07:43:24.999Z,25.60
2018-07-25T07:45:53.234Z,25.60
2018-07-25T07:48:21.494Z,25.70
2018-07-25T07:50:49.686Z,25.80
2018-07-25T07:55:45.782Z,25.90
2018-07-25T07:58:13.982Z,25.90
2018-07-25T08:00:42.114Z,26.00
2018-07-25T08:03:10.267Z,26.10
2018-07-25T08:05:38.407Z,26.10
2018-07-25T08:08:06.553Z,26.20
2018-07-25T08:10:34.703Z,26.30
2018-07-25T08:13:02.831Z,26.40
2018-07-25T08:15:30.965Z,26.50
2018-07-25T08:17:59.171Z,26.50
2018-07-25T08:20:27.228Z,26.70
2018-07-25T08:22:55.363Z,26.70
2018-07-25T08:25:23.494Z,26.80
2018-07-25T08:27:51.633Z,26.90
2018-07-25T08:30:19.785Z,27.00
2018-07-25T08:32:47.915Z,27.00
2018-07-25T08:35:16.055Z,27.10
2018-07-25T08:37:44.185Z,27.10
2018-07-25T08:40:12.315Z,27.20
2018-07-25T08:42:40.440Z,27.20
2018-07-25T08:45:09.271Z,27.30
2018-07-25T08:47:37.401Z,27.30
2018-07-25T08:50:06.028Z,27.40
2018-07-25T08:52:34.240Z,27.40
2018-07-25T08:55:02.337Z,27.50
2018-07-25T08:57:30.469Z,27.60
2018-07-25T08:59:58.746Z,27.60
2018-07-25T09:02:26.873Z,27.70
2018-07-25T09:04:55.042Z,27.80
2018-07-25T09:07:23.212Z,27.80
2018-07-25T09:09:51.351Z,27.90
2018-07-25T09:12:19.472Z,27.90
2018-07-25T09:14:47.605Z,28.00
2018-07-25T09:17:15.727Z,28.10
2018-07-25T09:19:43.909Z,28.10
2018-07-25T09:22:12.025Z,28.20
2018-07-25T09:24:40.157Z,28.20
2018-07-25T09:27:08.307Z,28.30
2018-07-25T09:29:36.433Z,28.30
2018-07-25T09:32:04.598Z,28.40
2018-07-25T09:34:32.735Z,28.40
2018-07-25T09:37:00.878Z,28.50
2018-07-25T09:39:29.073Z,28.50
2018-07-25T09:41:57.270Z,28.50
2018-07-25T09:44:25.438Z,28.60
2018-07-25T09:46:53.603Z,28.70
2018-07-25T09:49:21.689Z,28.80
2018-07-25T09:51:49.897Z,28.80
2018-07-25T09:54:18.038Z,28.90
2018-07-25T09:56:46.157Z,29.00
2018-07-25T09:59:14.278Z,29.10
2018-07-25T10:01:42.443Z,29.10
2018-07-25T10:04:10.638Z,29.20
2018-07-25T10:09:08.997Z,29.30
2018-07-25T10:11:37.145Z,29.40
2018-07-25T10:14:05.324Z,29.50
2018-07-25T10:16:33.454Z,29.50
2018-07-25T10:19:01.651Z,29.60
2018-07-25T10:21:29.746Z,29.60
2018-07-25T10:23:57.903Z,29.70
2018-07-25T10:26:26.053Z,29.70
2018-07-25T10:28:54.197Z,29.80
2018-07-25T10:31:22.358Z,29.80
2018-07-25T10:33:50.489Z,29.90
2018-07-25T10:36:18.622Z,30.00
2018-07-25T10:38:47.428Z,30.00
2018-07-25T10:41:15.587Z,30.10
2018-07-25T10:43:43.736Z,30.10
2018-07-25T10:46:11.983Z,30.20
2018-07-25T10:48:40.121Z,30.30
2018-07-25T10:51:08.245Z,30.40
2018-07-25T10:53:36.378Z,30.40
2018-07-25T10:56:04.501Z,30.50
2018-07-25T10:58:32.629Z,30.50
2018-07-25T11:01:00.774Z,30.60
2018-07-25T11:03:28.928Z,30.60
2018-07-25T11:05:57.050Z,30.70
2018-07-25T11:08:25.184Z,30.80
2018-07-25T11:10:53.314Z,30.80
2018-07-25T11:13:21.500Z,30.90
2018-07-25T11:15:49.634Z,30.90
2018-07-25T11:18:17.887Z,31.10
2018-07-25T11:20:46.062Z,31.10
2018-07-25T11:23:14.231Z,31.10
2018-07-25T11:25:42.330Z,31.20
2018-07-25T11:28:10.570Z,31.20
2018-07-25T11:30:38.677Z,31.30
2018-07-25T11:35:34.866Z,31.30
2018-07-25T11:38:03.172Z,31.40
2018-07-25T11:40:31.404Z,31.40
2018-07-25T11:42:59.616Z,31.50
2018-07-25T11:45:27.765Z,31.50
2018-07-25T11:47:55.873Z,31.60
2018-07-25T11:50:24.152Z,31.60
2018-07-25T11:52:52.349Z,31.70
2018-07-25T11:55:20.543Z,31.80
2018-07-25T11:57:48.628Z,31.80
2018-07-25T12:00:16.756Z,31.80
2018-07-25T12:02:44.887Z,31.90
2018-07-25T12:05:13.035Z,31.90
2018-07-25T12:07:41.235Z,31.90
2018-07-25T12:10:09.489Z,32.00
2018-07-25T12:12:37.637Z,32.00
2018-07-25T12:15:07.333Z,32.10
2018-07-25T12:17:35.569Z,32.10
2018-07-25T12:20:03.788Z,32.10
2018-07-25T12:22:32.258Z,32.10
2018-07-25T12:27:28.346Z,32.20
2018-07-25T12:29:56.507Z,32.10
2018-07-25T12:32:24.626Z,32.20
2018-07-25T12:34:52.773Z,32.20
2018-07-25T12:37:20.897Z,32.20
2018-07-25T12:39:49.038Z,32.20
2018-07-25T12:42:17.181Z,32.20
2018-07-25T12:44:45.316Z,32.20
2018-07-25T12:47:13.454Z,32.20
2018-07-25T12:49:41.604Z,32.20
2018-07-25T12:52:09.762Z,32.10
2018-07-25T12:54:37.894Z,32.10
2018-07-25T12:57:06.039Z,32.10
2018-07-25T12:59:34.167Z,32.10
2018-07-25T13:02:02.338Z,32.10
2018-07-25T13:04:30.439Z,32.10
2018-07-25T13:06:58.617Z,32.10
2018-07-25T13:09:26.750Z,32.20
2018-07-25T13:11:54.890Z,32.10
2018-07-25T13:14:23.035Z,32.20
2018-07-25T13:16:51.153Z,32.20
2018-07-25T13:19:19.288Z,32.20
2018-07-25T13:21:47.423Z,32.20
2018-07-25T13:24:15.573Z,32.30
2018-07-25T13:26:43.697Z,32.30
2018-07-25T13:29:11.809Z,32.30
2018-07-25T13:31:39.934Z,32.40
2018-07-25T13:34:08.257Z,32.50
2018-07-25T13:36:37.010Z,32.40
2018-07-25T13:39:07.029Z,32.50
2018-07-25T13:41:35.261Z,32.50
2018-07-25T13:46:31.415Z,32.50
2018-07-25T13:48:59.537Z,32.40
2018-07-25T13:51:27.684Z,32.40
2018-07-25T13:53:56.683Z,32.40
2018-07-25T13:56:24.802Z,32.30
2018-07-25T13:58:52.983Z,32.30
2018-07-25T14:01:21.110Z,32.20
2018-07-25T14:03:49.265Z,32.20
2018-07-25T14:06:17.624Z,32.10
2018-07-25T14:08:45.885Z,32.10
2018-07-25T14:11:14.057Z,32.00
2018-07-25T14:13:42.208Z,32.00
2018-07-25T14:16:10.470Z,31.90
2018-07-25T14:18:38.622Z,31.80
2018-07-25T14:21:06.758Z,31.80
2018-07-25T14:23:34.945Z,31.80
2018-07-25T14:26:03.038Z,31.90
2018-07-25T14:28:31.283Z,31.90
2018-07-25T14:30:59.426Z,31.90
2018-07-25T14:33:27.556Z,31.90
2018-07-25T14:35:55.701Z,31.90
2018-07-25T14:38:23.841Z,31.80
2018-07-25T14:40:52.007Z,31.90
2018-07-25T14:43:20.234Z,31.80
2018-07-25T14:45:48.319Z,31.80
2018-07-25T14:48:16.447Z,31.70
2018-07-25T14:53:12.477Z,31.60
2018-07-25T14:55:40.623Z,31.60
2018-07-25T14:58:08.759Z,31.60
2018-07-25T15:00:36.897Z,31.50
2018-07-25T15:03:05.075Z,31.50
2018-07-25T15:05:33.221Z,31.50
2018-07-25T15:08:01.350Z,31.50
2018-07-25T15:10:29.490Z,31.50
2018-07-25T15:12:58.878Z,31.40
2018-07-25T15:15:27.478Z,31.40
2018-07-25T15:17:56.178Z,31.30
2018-07-25T15:20:24.302Z,31.30
2018-07-25T15:22:52.505Z,31.30
2018-07-25T15:25:20.602Z,31.20
2018-07-25T15:27:48.752Z,31.20
2018-07-25T15:30:16.982Z,31.20
2018-07-25T15:32:45.135Z,31.20
2018-07-25T15:35:13.289Z,31.20
2018-07-25T15:37:41.423Z,31.10
2018-07-25T15:40:09.548Z,31.20
2018-07-25T15:42:37.698Z,31.10
2018-07-25T15:45:06.077Z,31.10
2018-07-25T15:47:34.312Z,31.10
2018-07-25T15:50:02.317Z,31.10
2018-07-25T15:52:30.445Z,31.10
2018-07-25T15:54:58.609Z,31.00
2018-07-25T15:57:26.752Z,31.00
2018-07-25T15:59:54.882Z,30.90
2018-07-25T16:02:23.161Z,30.90
2018-07-25T16:04:51.287Z,30.90
2018-07-25T16:07:19.476Z,30.80
2018-07-25T16:09:47.652Z,30.80
2018-07-25T16:12:15.755Z,30.80
2018-07-25T16:14:43.900Z,30.80
2018-07-25T16:17:12.073Z,30.60
2018-07-25T16:19:40.169Z,30.60
2018-07-25T16:22:08.297Z,30.60
2018-07-25T16:24:36.445Z,30.50
2018-07-25T16:27:04.561Z,30.50
2018-07-25T16:29:32.704Z,30.50
2018-07-25T16:34:28.741Z,30.50
2018-07-25T16:36:56.866Z,30.40
2018-07-25T16:39:25.006Z,30.40
2018-07-25T16:41:53.129Z,30.30
2018-07-25T16:44:21.301Z,30.30
2018-07-25T16:46:49.439Z,30.30
2018-07-25T16:49:17.573Z,30.20
2018-07-25T16:51:45.706Z,30.10
2018-07-25T16:54:13.925Z,30.10
2018-07-25T16:56:42.199Z,30.00
2018-07-25T16:59:10.204Z,30.00
2018-07-25T17:01:38.334Z,30.00
2018-07-25T17:04:06.469Z,30.00
2018-07-25T17:06:34.626Z,29.90
2018-07-25T17:09:02.783Z,29.90
2018-07-25T17:11:30.905Z,29.90
2018-07-25T17:13:59.043Z,29.80
2018-07-25T17:16:27.237Z,29.80
2018-07-25T17:18:55.357Z,29.80
2018-07-25T17:21:23.503Z,29.70
2018-07-25T17:23:51.634Z,29.70
2018-07-25T17:26:19.758Z,29.60
2018-07-25T17:28:47.931Z,29.60
2018-07-25T17:31:16.068Z,29.50
2018-07-25T17:33:44.173Z,29.40
2018-07-25T17:36:12.315Z,29.40
2018-07-25T17:38:40.459Z,29.30
2018-07-25T17:41:08.598Z,29.30
2018-07-25T17:43:36.732Z,29.20
2018-07-25T17:46:04.880Z,29.20
2018-07-25T17:48:33.017Z,29.10
2018-07-25T17:51:01.164Z,29.00
2018-07-25T17:53:29.296Z,28.90
2018-07-25T17:55:57.443Z,28.90
2018-07-25T17:58:25.594Z,28.90
2018-07-25T18:00:53.751Z,28.90
2018-07-25T18:03:21.953Z,28.80
2018-07-25T18:05:50.029Z,28.70
2018-07-25T18:08:18.164Z,28.70
2018-07-25T18:10:46.291Z,28.60
2018-07-25T18:13:20.009Z,28.60
2018-07-25T18:15:48.165Z,28.60
2018-07-25T18:18:16.281Z,28.50
2018-07-25T18:20:44.524Z,28.50
2018-07-25T18:23:12.658Z,28.50
2018-07-25T18:25:40.795Z,28.40
2018-07-25T18:28:08.921Z,28.40
2018-07-25T18:30:37.050Z,28.40
2018-07-25T18:33:05.194Z,28.40
2018-07-25T18:35:33.361Z,28.30
2018-07-25T18:38:01.470Z,28.30
2018-07-25T18:40:29.643Z,28.30
2018-07-25T18:42:57.796Z,28.20
2018-07-25T18:45:25.930Z,28.20
2018-07-25T18:47:54.080Z,28.20
2018-07-25T18:50:22.221Z,28.10
2018-07-25T18:52:50.374Z,28.10
2018-07-25T18:55:18.549Z,28.10
2018-07-25T18:57:46.666Z,28.10
2018-07-25T19:00:14.958Z,28.00
2018-07-25T19:02:43.097Z,28.00
2018-07-25T19:05:11.250Z,28.00
2018-07-25T19:07:39.410Z,28.00
2018-07-25T19:10:07.541Z,27.90
2018-07-25T19:12:35.693Z,27.90
2018-07-25T19:15:09.333Z,27.80
2018-07-25T19:17:37.483Z,27.80
2018-07-25T19:20:05.627Z,27.70
2018-07-25T19:22:33.807Z,27.70
2018-07-25T19:25:01.928Z,27.70
2018-07-25T19:27:30.073Z,27.60
2018-07-25T19:29:58.239Z,27.60
2018-07-25T19:32:26.405Z,27.60
2018-07-25T19:34:54.567Z,27.60
2018-07-25T19:37:22.683Z,27.50
2018-07-25T19:39:50.881Z,27.50
2018-07-25T19:42:19.013Z,27.50
2018-07-25T19:44:47.160Z,27.50
2018-07-25T19:47:15.320Z,27.50
2018-07-25T19:49:43.435Z,27.40
2018-07-25T19:52:11.592Z,27.40
2018-07-25T19:54:39.776Z,27.40
2018-07-25T19:57:07.843Z,27.40
2018-07-25T19:59:35.981Z,27.30
2018-07-25T20:02:04.139Z,27.30
2018-07-25T20:04:32.286Z,27.30
2018-07-25T20:07:00.490Z,27.30
2018-07-25T20:09:28.558Z,27.20
2018-07-25T20:11:56.715Z,27.20
2018-07-25T20:14:30.288Z,27.20
2018-07-25T20:16:58.356Z,27.20
2018-07-25T20:19:26.493Z,27.10
2018-07-25T20:21:54.682Z,27.10
2018-07-25T20:24:22.905Z,27.10
2018-07-25T20:26:50.951Z,27.10
2018-07-25T20:29:19.102Z,27.10
2018-07-25T20:31:47.227Z,27.00
2018-07-25T20:34:15.364Z,27.00
2018-07-25T20:36:43.478Z,27.00
2018-07-25T20:39:12.464Z,26.90
2018-07-25T20:41:41.357Z,26.90
2018-07-25T20:44:10.354Z,26.80
2018-07-25T20:46:38.505Z,26.80
2018-07-25T20:49:07.009Z,26.80
2018-07-25T20:51:35.126Z,26.70
2018-07-25T20:54:03.405Z,26.70
2018-07-25T20:56:31.556Z,26.70
2018-07-25T20:58:59.701Z,26.70
2018-07-25T21:01:27.811Z,26.60
2018-07-25T21:03:55.943Z,26.60
2018-07-25T21:06:24.072Z,26.60
2018-07-25T21:08:52.394Z,26.60
2018-07-25T21:11:20.865Z,26.50
2018-07-25T21:13:49.001Z,26.50
2018-07-25T21:16:17.166Z,26.50
2018-07-25T21:18:45.369Z,26.40
2018-07-25T21:21:13.529Z,26.40
2018-07-25T21:23:41.663Z,26.40
2018-07-25T21:26:09.882Z,26.30
2018-07-25T21:28:38.007Z,26.30
2018-07-25T21:33:34.098Z,26.30
2018-07-25T21:36:02.339Z,26.20
2018-07-25T21:38:30.486Z,26.20
2018-07-25T21:40:58.598Z,26.20
2018-07-25T21:43:26.734Z,26.20
2018-07-25T21:48:22.777Z,26.10
2018-07-25T21:53:18.854Z,26.00
2018-07-25T21:55:46.976Z,26.00
2018-07-25T21:58:15.111Z,26.00
2018-07-25T22:00:48.588Z,25.90
2018-07-25T22:03:16.737Z,25.90
2018-07-25T22:08:12.780Z,25.90
2018-07-25T22:13:08.849Z,25.90
2018-07-25T22:15:36.976Z,25.80
2018-07-25T22:18:05.402Z,25.80
2018-07-25T22:20:33.563Z,25.80
2018-07-25T22:23:01.694Z,25.80
2018-07-25T22:25:29.836Z,25.80
2018-07-25T22:27:57.944Z,25.70
2018-07-25T22:30:26.104Z,25.70
2018-07-25T22:32:54.303Z,25.70
2018-07-25T22:35:22.450Z,25.70
2018-07-25T22:37:50.633Z,25.60
2018-07-25T22:40:18.705Z,25.60
2018-07-25T22:42:46.833Z,25.60
2018-07-25T22:45:14.979Z,25.60
2018-07-25T22:47:43.100Z,25.60
2018-07-25T22:50:11.238Z,25.50
2018-07-25T22:52:39.378Z,25.50
2018-07-25T22:55:07.509Z,25.50
2018-07-25T22:57:35.635Z,25.40
2018-07-25T23:00:04.478Z,25.40
2018-07-25T23:02:32.590Z,25.40
2018-07-25T23:05:00.750Z,25.40
2018-07-25T23:07:28.889Z,25.30
2018-07-25T23:09:57.023Z,25.30
2018-07-25T23:12:25.162Z,25.30
2018-07-25T23:14:53.330Z,25.30
2018-07-25T23:17:21.466Z,25.30
2018-07-25T23:19:49.662Z,25.30
2018-07-25T23:22:17.797Z,25.30
2018-07-25T23:24:46.146Z,25.30
2018-07-25T23:27:14.314Z,25.30
2018-07-25T23:29:42.452Z,25.30
2018-07-25T23:32:10.590Z,25.20
2018-07-25T23:34:38.725Z,25.20
2018-07-25T23:37:06.916Z,25.20
2018-07-25T23:39:35.033Z,25.20
2018-07-25T23:42:03.157Z,25.20
2018-07-25T23:44:31.299Z,25.20
2018-07-25T23:46:59.439Z,25.10
2018-07-25T23:49:27.561Z,25.10
2018-07-25T23:51:55.707Z,25.10
2018-07-25T23:54:23.848Z,25.10
2018-07-25T23:56:51.990Z,25.00
2018-07-25T23:59:20.131Z,25.00
